Time;durP1;ratioP1;P1;durP2;ratioP2;P2;SDS_P1;SDS_P2;PMS_P1;PMS_P2;Temp;Humidity;BMP_temperature;BMP_pressure;BME280_temperature;BME280_humidity;BME280_pressure;Samples;Min_cycle;Max_cycle;Signal;HPM_P1;HPM_P2
2022/12/07 00:00:39;;;;;;;16.50;9.32;;;3.50;38.20;;;;;;7355046;19;20470;-75
2022/12/07 00:03:09;;;;;;;15.80;8.70;;;3.50;39.10;;;;;;7361284;19;20009;-74
2022/12/07 00:05:41;;;;;;;14.65;9.20;;;3.50;38.00;;;;;;7361111;19;20074;-74
2022/12/07 00:08:11;;;;;;;13.52;8.82;;;3.50;38.30;;;;;;7363099;19;20017;-74
2022/12/07 00:10:41;;;;;;;12.60;8.93;;;3.50;38.20;;;;;;7375972;19;20014;-73
2022/12/07 00:13:11;;;;;;;13.02;9.10;;;3.50;38.40;;;;;;7360154;19;20017;-73
2022/12/07 00:15:41;;;;;;;15.35;9.00;;;3.40;37.90;;;;;;7361957;19;20017;-73
2022/12/07 00:18:10;;;;;;;15.55;10.32;;;3.40;38.30;;;;;;7365027;19;20473;-73
2022/12/07 00:20:43;;;;;;;15.25;9.90;;;3.40;38.10;;;;;;7360489;19;20014;-74
2022/12/07 00:23:13;;;;;;;13.82;8.82;;;3.40;37.60;;;;;;7369024;19;20029;-73
2022/12/07 00:25:43;;;;;;;13.57;8.98;;;3.40;38.00;;;;;;7390218;19;20044;-74
2022/12/07 00:28:12;;;;;;;14.80;9.60;;;3.40;38.20;;;;;;7369077;19;20007;-74
2022/12/07 00:30:42;;;;;;;14.45;9.25;;;3.40;38.50;;;;;;7361076;19;20655;-74
2022/12/07 00:33:12;;;;;;;12.73;8.40;;;3.40;38.80;;;;;;7368649;19;20474;-74
2022/12/07 00:35:44;;;;;;;13.35;9.52;;;3.40;38.10;;;;;;7367407;19;20078;-74
2022/12/07 00:38:14;;;;;;;14.60;8.93;;;3.40;38.40;;;;;;7370541;19;20013;-74
2022/12/07 00:40:44;;;;;;;16.08;9.90;;;3.40;38.30;;;;;;7383831;19;20026;-74
2022/12/07 00:43:14;;;;;;;12.95;9.00;;;3.30;38.40;;;;;;7369099;19;20011;-74
2022/12/07 00:45:44;;;;;;;14.73;9.98;;;3.40;38.00;;;;;;7368108;19;20021;-75
2022/12/07 00:48:14;;;;;;;15.32;9.90;;;3.30;38.40;;;;;;7370110;19;20003;-74
2022/12/07 00:50:46;;;;;;;16.08;10.07;;;3.30;38.40;;;;;;7362067;19;20014;-76
2022/12/07 00:53:16;;;;;;;15.57;9.13;;;3.30;38.30;;;;;;7369840;19;20472;-74
2022/12/07 00:55:48;;;;;;;15.85;9.85;;;3.20;38.40;;;;;;7389530;19;20472;-75
2022/12/07 00:58:18;;;;;;;14.48;9.27;;;3.20;38.70;;;;;;7369007;19;20467;-74
2022/12/07 01:00:48;;;;;;;15.30;9.27;;;3.20;38.60;;;;;;7362595;19;20007;-76
2022/12/07 01:03:19;;;;;;;16.08;9.85;;;3.20;38.80;;;;;;7367092;19;20029;-74
2022/12/07 01:05:56;;;;;;;17.00;10.27;;;3.20;38.40;;;;;;7363410;19;20036;-73
2022/12/07 01:08:27;;;;;;;17.23;10.68;;;3.20;38.60;;;;;;7365425;19;20363;-73
2022/12/07 01:11:01;;;;;;;14.45;9.50;;;3.20;36.60;;;;;;7384323;19;20025;-73
2022/12/07 01:13:31;;;;;;;;;;;3.20;36.60;;;;;;7368105;19;20027;-74
2022/12/07 01:16:02;;;;;;;16.02;10.07;;;3.20;36.60;;;;;;7365775;19;19922;-74
2022/12/07 01:18:35;;;;;;;18.48;10.98;;;3.20;34.90;;;;;;7362703;19;20393;-74
2022/12/07 01:21:09;;;;;;;16.13;10.40;;;3.20;35.10;;;;;;7362699;19;20018;-73
2022/12/07 01:23:39;;;;;;;18.63;11.27;;;3.20;34.30;;;;;;7368570;19;20456;-74
2022/12/07 01:26:12;;;;;;;17.58;10.85;;;3.20;34.20;;;;;;7367978;19;20021;-74
2022/12/07 01:28:42;;;;;;;18.35;10.60;;;3.20;33.30;;;;;;7385627;19;20041;-73
2022/12/07 01:31:15;;;;;;;15.23;9.23;;;3.20;32.30;;;;;;7360779;19;20488;-74
2022/12/07 01:33:46;;;;;;;16.27;10.45;;;3.20;31.80;;;;;;7367142;19;20033;-73
2022/12/07 01:36:20;;;;;;;20.00;11.18;;;3.30;32.00;;;;;;7368229;19;20014;-73
2022/12/07 01:38:53;;;;;;;20.38;11.32;;;3.20;31.80;;;;;;7365135;19;20109;-74
2022/12/07 01:41:23;;;;;;;16.02;9.60;;;3.30;32.10;;;;;;7362362;19;20367;-73
2022/12/07 01:44:10;;;;;;;15.02;10.57;;;3.30;31.60;;;;;;7388331;19;20019;-74
2022/12/07 01:46:41;;;;;;;16.67;10.98;;;3.20;30.10;;;;;;7367403;19;20031;-74
2022/12/07 01:49:17;;;;;;;17.50;10.27;;;3.20;31.20;;;;;;7362449;19;20604;-73
2022/12/07 01:51:51;;;;;;;17.38;10.10;;;3.30;31.20;;;;;;7364251;19;20014;-74
2022/12/07 01:54:23;;;;;;;18.30;10.73;;;3.30;30.80;;;;;;7367271;19;20002;-73
2022/12/07 01:56:56;;;;;;;16.08;9.70;;;3.20;30.40;;;;;;7367159;19;20002;-73
2022/12/07 01:59:28;;;;;;;15.60;9.48;;;3.30;30.80;;;;;;7360758;19;20004;-74
2022/12/07 02:01:58;;;;;;;16.05;10.10;;;3.20;30.30;;;;;;7388017;19;20350;-73
2022/12/07 02:04:28;;;;;;;15.73;10.18;;;3.30;31.30;;;;;;7365362;19;20022;-73
2022/12/07 02:07:01;;;;;;;15.88;10.02;;;3.20;31.00;;;;;;7367329;19;20014;-74
2022/12/07 02:09:30;;;;;;;15.90;9.98;;;3.20;31.60;;;;;;7360237;19;20458;-73
2022/12/07 02:12:00;;;;;;;16.25;10.15;;;3.30;32.20;;;;;;7367095;19;20018;-73
2022/12/07 02:14:30;;;;;;;13.82;9.27;;;3.30;32.50;;;;;;7366322;19;20085;-72
2022/12/07 02:17:10;;;;;;;17.65;9.80;;;3.30;32.50;;;;;;7388752;19;20018;-74
2022/12/07 02:20:07;;;;;;;14.55;9.27;;;3.30;32.50;;;;;;7356967;19;20006;-73
2022/12/07 02:23:06;;;;;;;16.67;10.48;;;3.30;32.60;;;;;;7368360;19;20013;-74
2022/12/07 02:26:04;;;;;;;17.08;10.48;;;3.20;32.40;;;;;;7364397;19;20006;-73
2022/12/07 02:28:38;;;;;;;15.70;9.90;;;3.30;33.60;;;;;;7363055;19;20017;-74
2022/12/07 02:31:19;;;;;;;14.43;9.75;;;3.30;33.90;;;;;;7360956;19;20009;-74
2022/12/07 02:33:56;;;;;;;15.80;9.68;;;3.30;34.00;;;;;;7364401;19;20482;-74
2022/12/07 02:36:30;;;;;;;14.60;9.35;;;3.30;34.10;;;;;;7366584;19;20462;-74
2022/12/07 02:39:05;;;;;;;13.80;8.93;;;3.20;34.40;;;;;;7363110;19;20017;-74
2022/12/07 02:41:40;;;;;;;17.60;10.15;;;3.30;35.20;;;;;;7360451;19;20098;-73
2022/12/07 02:44:13;;;;;;;14.80;9.18;;;3.30;35.40;;;;;;7365469;19;20018;-74
2022/12/07 02:46:51;;;;;;;16.00;10.02;;;3.30;35.40;;;;;;7387457;19;20025;-73
2022/12/07 02:49:24;;;;;;;17.10;9.88;;;3.30;35.70;;;;;;7359829;19;20023;-74
2022/12/07 02:51:55;;;;;;;15.45;10.23;;;3.30;36.10;;;;;;7363655;19;20030;-74
2022/12/07 02:54:25;;;;;;;14.80;9.93;;;3.20;36.50;;;;;;7365458;19;20010;-74
2022/12/07 02:57:01;;;;;;;15.88;10.15;;;3.20;37.20;;;;;;7365536;19;20011;-74
2022/12/07 02:59:41;;;;;;;14.90;9.88;;;3.20;36.60;;;;;;7358620;19;20470;-74
2022/12/07 03:02:24;;;;;;;14.88;9.38;;;3.20;36.60;;;;;;7365648;19;20078;-73
2022/12/07 03:05:05;;;;;;;15.48;9.02;;;3.20;36.60;;;;;;7386610;19;20010;-73
2022/12/07 03:07:41;;;;;;;15.63;9.82;;;3.20;36.60;;;;;;7366215;19;20034;-74
2022/12/07 03:10:19;;;;;;;16.92;9.73;;;3.20;37.20;;;;;;7355921;19;20482;-73
2022/12/07 03:13:00;;;;;;;13.82;9.25;;;3.20;37.40;;;;;;7365603;19;20002;-73
2022/12/07 03:15:36;;;;;;;14.40;9.27;;;3.20;37.20;;;;;;7365971;19;20080;-73
2022/12/07 03:18:11;;;;;;;14.43;9.25;;;3.10;37.20;;;;;;7365542;19;20011;-74
2022/12/07 03:20:44;;;;;;;14.73;9.88;;;3.10;37.40;;;;;;7357355;19;20528;-74
2022/12/07 03:23:17;;;;;;;14.93;9.10;;;3.10;37.50;;;;;;7364402;19;20014;-74
2022/12/07 03:25:52;;;;;;;15.00;9.40;;;3.10;37.50;;;;;;7385913;19;20011;-73
2022/12/07 03:28:34;;;;;;;15.13;9.65;;;3.10;37.40;;;;;;7361726;19;20354;-74
2022/12/07 03:31:07;;;;;;;15.50;9.63;;;3.10;37.70;;;;;;7358888;19;20014;-73
2022/12/07 03:33:45;;;;;;;13.05;8.77;;;3.00;37.40;;;;;;7363474;19;20002;-74
2022/12/07 03:36:24;;;;;;;14.02;9.57;;;3.00;37.50;;;;;;7364081;19;20011;-73
2022/12/07 03:39:00;;;;;;;13.93;8.88;;;3.00;37.80;;;;;;7361821;19;20007;-74
2022/12/07 03:41:32;;;;;;;15.02;9.90;;;3.00;37.60;;;;;;7359375;19;20018;-74
2022/12/07 03:44:02;;;;;;;14.43;9.23;;;3.00;37.90;;;;;;7385295;19;20122;-74
2022/12/07 03:46:44;;;;;;;16.25;9.52;;;3.00;37.50;;;;;;7361814;19;20010;-74
2022/12/07 03:49:24;;;;;;;15.85;10.00;;;3.00;37.40;;;;;;7359312;19;20101;-74
2022/12/07 03:51:59;;;;;;;14.63;9.32;;;3.00;37.40;;;;;;7362773;19;20013;-74
2022/12/07 03:54:35;;;;;;;16.85;10.25;;;2.90;36.80;;;;;;7368564;19;20013;-74
2022/12/07 03:57:06;;;;;;;17.60;10.07;;;3.00;36.80;;;;;;7371184;19;20371;-74
2022/12/07 03:59:37;;;;;;;15.10;9.63;;;3.00;36.40;;;;;;7361999;19;20019;-74
2022/12/07 04:02:09;;;;;;;14.70;9.90;;;3.00;36.30;;;;;;7373340;19;20014;-74
2022/12/07 04:04:42;;;;;;;15.85;10.38;;;3.00;35.40;;;;;;7391780;19;20030;-73
2022/12/07 04:07:12;;;;;;;18.65;10.20;;;3.00;34.50;;;;;;7370724;19;20013;-74
2022/12/07 04:09:42;;;;;;;15.23;9.30;;;3.00;33.90;;;;;;7362254;19;20415;-74
2022/12/07 04:12:12;;;;;;;15.50;9.15;;;3.00;33.70;;;;;;7370846;19;20010;-74
2022/12/07 04:14:42;;;;;;;15.15;9.88;;;3.00;32.90;;;;;;7370425;19;20020;-74
2022/12/07 04:17:12;;;;;;;17.27;9.48;;;3.00;32.10;;;;;;7370142;19;20016;-74
2022/12/07 04:19:44;;;;;;;16.95;9.93;;;3.00;32.10;;;;;;7381564;19;20817;-74
2022/12/07 04:22:14;;;;;;;15.75;10.80;;;3.00;32.00;;;;;;7371523;19;20492;-73
2022/12/07 04:24:44;;;;;;;17.90;10.50;;;3.00;31.30;;;;;;7369852;19;20018;-75
2022/12/07 04:27:14;;;;;;;20.55;10.52;;;3.00;30.80;;;;;;7370502;19;20011;-75
2022/12/07 04:29:44;;;;;;;22.38;10.75;;;3.00;30.30;;;;;;7360695;19;20073;-73
2022/12/07 04:32:14;;;;;;;16.52;9.80;;;3.00;29.90;;;;;;7370473;19;20481;-74
2022/12/07 04:34:46;;;;;;;15.48;9.52;;;3.00;29.40;;;;;;7391066;19;20018;-75
2022/12/07 04:37:24;;;;;;;16.85;9.65;;;3.00;29.10;;;;;;7369928;19;20020;-75
2022/12/07 04:39:53;;;;;;;15.45;9.68;;;2.90;28.70;;;;;;7360558;19;20003;-74
2022/12/07 04:42:23;;;;;;;17.23;9.88;;;2.90;28.40;;;;;;7369698;19;20009;-74
2022/12/07 04:44:53;;;;;;;16.00;9.50;;;2.90;27.80;;;;;;7368319;19;20010;-75
2022/12/07 04:47:23;;;;;;;15.25;9.35;;;2.90;27.10;;;;;;7366196;19;20446;-74
2022/12/07 04:49:55;;;;;;;16.13;9.48;;;2.90;26.20;;;;;;7381599;19;20029;-74
2022/12/07 04:52:25;;;;;;;15.32;9.13;;;2.90;26.30;;;;;;7370470;19;20077;-74
2022/12/07 04:54:55;;;;;;;15.88;9.90;;;2.80;26.30;;;;;;7368687;19;20014;-74
2022/12/07 04:57:25;;;;;;;16.80;9.60;;;2.80;27.40;;;;;;7368872;19;20011;-74
2022/12/07 04:59:55;;;;;;;17.70;10.60;;;2.70;27.70;;;;;;7359384;19;20549;-73
2022/12/07 05:02:24;;;;;;;17.40;10.70;;;2.70;28.60;;;;;;7368939;19;20488;-74
2022/12/07 05:04:57;;;;;;;16.65;10.35;;;2.70;29.40;;;;;;7390314;19;20018;-74
2022/12/07 05:07:27;;;;;;;17.45;10.27;;;2.70;30.10;;;;;;7366012;19;20010;-73
2022/12/07 05:09:56;;;;;;;17.23;10.07;;;2.60;30.00;;;;;;7360923;19;20458;-74
2022/12/07 05:12:26;;;;;;;15.07;9.32;;;2.60;30.10;;;;;;7369125;19;20823;-73
2022/12/07 05:14:56;;;;;;;16.98;9.80;;;2.60;30.50;;;;;;7366873;19;20021;-74
2022/12/07 05:17:26;;;;;;;16.80;10.32;;;2.50;31.10;;;;;;7368551;19;20487;-74
2022/12/07 05:19:58;;;;;;;16.92;10.13;;;2.50;31.90;;;;;;7380332;19;20010;-73
2022/12/07 05:22:29;;;;;;;15.73;10.38;;;2.50;32.50;;;;;;7368521;19;20035;-73
2022/12/07 05:24:59;;;;;;;16.40;10.20;;;2.50;33.10;;;;;;7367941;19;20105;-74
2022/12/07 05:27:29;;;;;;;19.00;10.95;;;2.40;33.30;;;;;;7367052;19;20082;-73
2022/12/07 05:29:59;;;;;;;16.83;10.10;;;2.40;34.30;;;;;;7358952;19;20089;-74
2022/12/07 05:32:29;;;;;;;20.77;10.40;;;2.50;35.60;;;;;;7368672;19;20036;-73
2022/12/07 05:35:01;;;;;;;17.67;10.38;;;2.50;35.90;;;;;;7389793;19;20375;-74
2022/12/07 05:37:31;;;;;;;17.42;10.80;;;2.50;36.00;;;;;;7367570;19;20350;-74
2022/12/07 05:40:01;;;;;;;18.30;10.70;;;2.50;36.00;;;;;;7358442;19;20013;-73
2022/12/07 05:42:31;;;;;;;15.65;9.93;;;2.50;36.10;;;;;;7368871;19;20014;-73
2022/12/07 05:45:01;;;;;;;17.75;10.63;;;2.50;36.00;;;;;;7366062;19;20014;-74
2022/12/07 05:47:32;;;;;;;19.33;10.55;;;2.60;36.10;;;;;;7364860;19;20382;-74
2022/12/07 05:50:06;;;;;;;17.38;10.55;;;2.60;35.80;;;;;;7379275;19;20020;-74
2022/12/07 05:52:36;;;;;;;19.42;10.48;;;2.60;35.70;;;;;;7367685;19;20078;-74
2022/12/07 05:55:07;;;;;;;20.70;10.63;;;2.60;34.70;;;;;;7366315;19;20483;-74
2022/12/07 05:57:37;;;;;;;18.90;11.50;;;2.60;31.50;;;;;;7366866;19;20021;-73
2022/12/07 06:00:07;;;;;;;19.13;10.43;;;2.70;31.70;;;;;;7356598;19;20007;-74
2022/12/07 06:02:37;;;;;;;18.63;10.38;;;2.70;30.00;;;;;;7368090;19;20103;-74
2022/12/07 06:05:10;;;;;;;15.35;9.85;;;2.70;28.40;;;;;;7366650;19;20027;-74
2022/12/07 06:07:40;;;;;;;19.35;11.00;;;2.70;27.30;;;;;;7386698;19;20050;-73
2022/12/07 06:10:11;;;;;;;18.58;10.25;;;2.70;26.90;;;;;;7356365;19;20014;-73
2022/12/07 06:12:42;;;;;;;14.85;9.35;;;2.70;26.90;;;;;;7366658;19;20013;-74
2022/12/07 06:15:12;;;;;;;17.80;10.13;;;2.70;26.30;;;;;;7365545;19;20013;-73
2022/12/07 06:17:42;;;;;;;15.88;9.70;;;2.80;26.10;;;;;;7366802;19;20006;-74
2022/12/07 06:20:15;;;;;;;14.77;9.05;;;2.80;25.00;;;;;;7355966;19;20010;-74
2022/12/07 06:22:45;;;;;;;16.17;8.50;;;2.80;25.00;;;;;;7388074;19;20021;-72
2022/12/07 06:25:15;;;;;;;14.93;8.70;;;2.80;23.80;;;;;;7366232;19;20074;-73
2022/12/07 06:27:44;;;;;;;15.85;8.73;;;2.80;22.20;;;;;;7365454;19;20014;-74
2022/12/07 06:30:15;;;;;;;12.50;8.35;;;2.90;21.00;;;;;;7355618;19;20101;-72
2022/12/07 06:32:44;;;;;;;15.35;7.72;;;2.80;20.70;;;;;;7366471;19;20003;-73
2022/12/07 06:35:17;;;;;;;12.18;7.80;;;2.80;19.60;;;;;;7364633;19;20014;-73
2022/12/07 06:37:47;;;;;;;13.35;8.38;;;2.80;18.20;;;;;;7386808;19;20014;-74
2022/12/07 06:40:17;;;;;;;14.00;8.00;;;2.90;18.30;;;;;;7355747;19;20044;-73
2022/12/07 06:42:47;;;;;;;10.10;6.85;;;2.80;17.30;;;;;;7365405;19;20014;-74
2022/12/07 06:45:17;;;;;;;12.07;7.13;;;2.90;16.70;;;;;;7362310;19;20014;-74
2022/12/07 06:47:47;;;;;;;13.38;7.65;;;2.90;14.80;;;;;;7365363;19;20014;-73
2022/12/07 06:50:19;;;;;;;11.48;6.95;;;2.90;14.80;;;;;;7355852;19;20344;-75
2022/12/07 06:52:49;;;;;;;13.38;7.35;;;2.90;13.80;;;;;;7387150;19;20018;-74
2022/12/07 06:55:19;;;;;;;11.00;6.93;;;3.00;12.80;;;;;;7364300;19;20474;-73
2022/12/07 06:57:49;;;;;;;10.05;6.85;;;2.90;11.30;;;;;;7364480;19;20010;-74
2022/12/07 07:00:20;;;;;;;10.52;6.28;;;3.00;11.30;;;;;;7354674;19;20022;-74
2022/12/07 07:02:51;;;;;;;10.77;6.72;;;3.00;9.80;;;;;;7366268;19;20025;-74
2022/12/07 07:05:23;;;;;;;14.43;7.05;;;3.00;8.70;;;;;;7364284;19;20011;-73
2022/12/07 07:07:53;;;;;;;10.80;6.57;;;3.00;9.00;;;;;;7383642;19;20026;-74
2022/12/07 07:10:44;;;;;;;9.48;6.30;;;3.00;8.60;;;;;;7357628;19;20048;-73
2022/12/07 07:13:15;;;;;;;11.90;7.03;;;3.00;8.90;;;;;;7363244;19;20533;-74
2022/12/07 07:15:45;;;;;;;13.77;7.30;;;3.00;9.10;;;;;;7364848;19;20121;-74
2022/12/07 07:18:15;;;;;;;11.20;6.72;;;3.00;8.20;;;;;;7364356;19;20042;-74
2022/12/07 07:20:47;;;;;;;11.02;6.82;;;3.00;7.80;;;;;;7356978;19;20474;-73
2022/12/07 07:23:17;;;;;;;13.38;7.18;;;3.10;7.80;;;;;;7364303;19;20468;-74
2022/12/07 07:25:47;;;;;;;13.30;6.95;;;3.10;7.80;;;;;;7386655;19;20019;-74
2022/12/07 07:28:18;;;;;;;9.90;5.95;;;3.10;7.80;;;;;;7363978;19;20017;-73
2022/12/07 07:30:48;;;;;;;13.73;8.25;;;3.10;8.20;;;;;;7366078;19;20013;-73
2022/12/07 07:33:18;;;;;;;12.45;7.28;;;3.10;9.10;;;;;;7370578;19;20038;-74
2022/12/07 07:35:50;;;;;;;13.18;7.60;;;3.10;8.50;;;;;;7372316;19;20010;-73
2022/12/07 07:38:23;;;;;;;13.98;7.57;;;3.10;8.40;;;;;;7368771;19;20018;-73
2022/12/07 07:40:53;;;;;;;13.57;7.80;;;3.20;8.50;;;;;;7388113;19;20335;-74
2022/12/07 07:43:23;;;;;;;14.52;7.68;;;3.20;7.80;;;;;;7369506;19;20018;-75
2022/12/07 07:45:53;;;;;;;16.08;8.75;;;3.20;7.60;;;;;;7371557;19;20066;-74
2022/12/07 07:48:25;;;;;;;12.32;7.18;;;3.20;7.80;;;;;;7369048;19;20034;-74
2022/12/07 07:50:57;;;;;;;11.02;6.90;;;3.20;7.80;;;;;;7367053;19;20011;-74
2022/12/07 07:53:27;;;;;;;12.45;7.07;;;3.30;8.20;;;;;;7370435;19;20019;-74
2022/12/07 07:55:57;;;;;;;12.18;6.75;;;3.30;7.80;;;;;;7393961;19;20019;-73
2022/12/07 07:58:27;;;;;;;10.57;7.15;;;3.30;7.60;;;;;;7366821;19;20023;-74
2022/12/07 08:00:57;;;;;;;13.25;7.28;;;3.30;6.40;;;;;;7366279;19;20040;-73
2022/12/07 08:03:27;;;;;;;11.52;6.80;;;3.40;6.40;;;;;;7368604;19;20013;-74
2022/12/07 08:05:59;;;;;;;10.10;6.28;;;3.40;5.60;;;;;;7371158;19;20003;-75
2022/12/07 08:08:29;;;;;;;10.32;6.22;;;3.50;5.40;;;;;;7365455;19;20034;-75
2022/12/07 08:11:00;;;;;;;11.38;6.57;;;3.50;5.50;;;;;;7387244;19;20015;-72
2022/12/07 08:13:30;;;;;;;10.38;6.60;;;3.50;4.90;;;;;;7370467;19;20489;-74
2022/12/07 08:16:01;;;;;;;11.35;6.43;;;3.60;4.40;;;;;;7370842;19;20564;-74
2022/12/07 08:18:31;;;;;;;11.07;6.18;;;3.60;3.20;;;;;;7365707;19;20039;-74
2022/12/07 08:21:04;;;;;;;9.90;5.93;;;3.70;2.70;;;;;;7367060;19;20013;-73
2022/12/07 08:23:34;;;;;;;12.63;6.05;;;3.70;1.90;;;;;;7369488;19;20014;-74
2022/12/07 08:26:11;;;;;;;10.88;6.72;;;3.80;1.00;;;;;;7371101;19;20015;-73
2022/12/07 08:28:41;;;;;;;10.68;6.05;;;3.80;1.00;;;;;;7388346;19;20030;-73
2022/12/07 08:31:14;;;;;;;12.15;6.75;;;3.80;1.00;;;;;;7371201;19;20027;-74
2022/12/07 08:33:44;;;;;;;11.63;6.30;;;3.80;1.00;;;;;;7366656;19;20481;-75
2022/12/07 08:36:17;;;;;;;10.35;6.50;;;3.90;1.00;;;;;;7369842;19;20007;-73
2022/12/07 08:38:47;;;;;;;13.10;6.68;;;3.90;1.00;;;;;;7366065;19;21456;-73
2022/12/07 08:41:37;;;;;;;9.45;5.90;;;4.00;1.00;;;;;;7370669;19;20010;-74
2022/12/07 08:44:08;;;;;;;12.52;6.45;;;4.10;1.00;;;;;;7364385;19;20011;-74
2022/12/07 08:46:41;;;;;;;10.90;6.22;;;4.20;1.00;;;;;;7390328;19;20011;-73
2022/12/07 08:49:14;;;;;;;10.05;5.78;;;4.30;1.00;;;;;;7363313;19;20469;-73
2022/12/07 08:51:47;;;;;;;10.80;6.38;;;4.30;1.00;;;;;;7370560;19;20014;-74
2022/12/07 08:54:20;;;;;;;10.65;5.80;;;4.40;1.00;;;;;;7364552;19;20017;-74
2022/12/07 08:56:51;;;;;;;9.40;5.70;;;4.40;1.00;;;;;;7367586;19;20035;-74
2022/12/07 08:59:28;;;;;;;10.07;6.20;;;4.50;1.00;;;;;;7363558;19;20877;-74
2022/12/07 09:01:58;;;;;;;9.23;5.78;;;4.50;1.00;;;;;;7391298;19;20009;-74
2022/12/07 09:04:28;;;;;;;11.82;5.72;;;4.60;1.00;;;;;;7363463;19;20006;-74
2022/12/07 09:07:01;;;;;;;9.50;5.53;;;4.50;1.00;;;;;;7367748;19;20014;-74
2022/12/07 09:09:31;;;;;;;8.48;5.60;;;4.60;1.00;;;;;;7361790;19;20352;-75
2022/12/07 09:12:01;;;;;;;12.77;5.13;;;4.70;1.00;;;;;;7368904;19;20171;-74
2022/12/07 09:14:31;;;;;;;9.77;5.32;;;4.80;1.00;;;;;;7362186;19;20015;-74
2022/12/07 09:17:08;;;;;;;8.32;4.45;;;4.60;1.00;;;;;;7388260;19;20097;-74
2022/12/07 09:19:42;;;;;;;7.47;4.28;;;4.80;1.00;;;;;;7361936;19;20014;-74
2022/12/07 09:22:14;;;;;;;6.65;4.28;;;4.80;1.00;;;;;;7366722;19;20006;-74
2022/12/07 09:24:45;;;;;;;8.43;4.13;;;4.80;1.00;;;;;;7361752;19;20023;-75
2022/12/07 09:27:17;;;;;;;7.10;4.55;;;4.80;1.00;;;;;;7367628;19;20093;-75
2022/12/07 09:29:47;;;;;;;8.00;5.00;;;5.00;1.00;;;;;;7363914;19;20021;-75
2022/12/07 09:32:17;;;;;;;8.48;4.30;;;5.00;1.00;;;;;;7365363;19;20036;-73
2022/12/07 09:34:47;;;;;;;5.10;3.78;;;5.00;1.00;;;;;;7381999;19;20015;-75
2022/12/07 09:37:19;;;;;;;8.23;4.50;;;4.90;1.00;;;;;;7365589;19;20010;-74
2022/12/07 09:39:49;;;;;;;9.32;4.40;;;5.00;1.00;;;;;;7362330;19;20007;-74
2022/12/07 09:42:30;;;;;;;7.93;4.22;;;4.80;1.00;;;;;;7365511;19;20010;-74
2022/12/07 09:45:01;;;;;;;7.13;4.85;;;4.80;1.00;;;;;;7364350;19;20010;-74
2022/12/07 09:47:33;;;;;;;8.75;4.95;;;4.80;1.00;;;;;;7365120;19;20018;-75
2022/12/07 09:50:10;;;;;;;8.25;4.88;;;4.70;1.00;;;;;;7381805;19;20403;-74
2022/12/07 09:52:43;;;;;;;9.70;4.82;;;4.70;1.00;;;;;;7358701;19;20013;-74
2022/12/07 09:55:16;;;;;;;7.55;4.35;;;4.60;1.00;;;;;;7365317;19;20102;-74
2022/12/07 09:57:46;;;;;;;9.82;5.28;;;4.70;1.00;;;;;;7366000;19;20478;-74
2022/12/07 10:00:19;;;;;;;9.98;4.63;;;4.80;1.00;;;;;;7359999;19;20038;-76
2022/12/07 10:02:52;;;;;;;8.40;5.38;;;4.70;1.00;;;;;;7361829;19;20010;-73
2022/12/07 10:05:26;;;;;;;7.25;4.60;;;4.80;1.00;;;;;;7364826;19;20015;-74
2022/12/07 10:07:59;;;;;;;8.27;5.30;;;4.60;1.00;;;;;;7386636;19;20014;-74
2022/12/07 10:10:32;;;;;;;7.75;4.10;;;4.50;1.00;;;;;;7362147;19;20086;-74
2022/12/07 10:13:09;;;;;;;9.27;5.07;;;4.70;1.00;;;;;;7361392;19;20018;-71
2022/12/07 10:15:54;;;;;;;9.30;5.07;;;4.80;1.00;;;;;;7366327;19;20003;-70
2022/12/07 10:18:33;;;;;;;10.45;4.60;;;4.90;1.00;;;;;;7362159;19;20094;-70
2022/12/07 10:21:09;;;;;;;6.85;4.20;;;5.00;1.00;;;;;;7365203;19;20046;-71
2022/12/07 10:23:43;;;;;;;6.20;3.70;;;5.00;1.00;;;;;;7357679;19;20554;-72
2022/12/07 10:26:24;;;;;;;5.35;3.33;;;4.80;1.00;;;;;;7365948;19;20013;-72
2022/12/07 10:28:54;;;;;;;8.90;3.55;;;4.80;1.00;;;;;;7382744;19;20039;-73
2022/12/07 10:31:25;;;;;;;5.65;3.40;;;4.80;1.00;;;;;;7364055;19;20014;-74
2022/12/07 10:33:57;;;;;;;6.32;4.00;;;4.80;1.00;;;;;;7358924;19;20057;-72
2022/12/07 10:36:30;;;;;;;5.57;3.45;;;4.70;1.00;;;;;;7364661;19;20018;-74
2022/12/07 10:39:06;;;;;;;5.07;3.15;;;4.60;1.30;;;;;;7361370;19;20576;-74
2022/12/07 10:41:36;;;;;;;4.35;3.20;;;4.70;2.10;;;;;;7364620;19;20513;-74
2022/12/07 10:44:06;;;;;;;5.40;3.67;;;4.70;2.40;;;;;;7367975;19;20059;-74
2022/12/07 10:47:00;;;;;;;6.50;3.70;;;4.40;4.00;;;;;;7386268;19;20025;-74
2022/12/07 10:50:08;;;;;;;8.93;4.82;;;4.50;5.00;;;;;;7359880;19;20078;-74
2022/12/07 10:52:50;;;;;;;8.20;4.40;;;4.50;3.90;;;;;;7358471;19;20015;-75
2022/12/07 10:55:44;;;;;;;6.93;4.63;;;4.70;3.80;;;;;;7362281;19;20018;-74
2022/12/07 10:58:34;;;;;;;7.72;4.53;;;4.70;2.50;;;;;;7364893;19;20018;-73
2022/12/07 11:01:13;;;;;;;7.78;4.93;;;4.60;3.60;;;;;;7362882;19;20015;-73
2022/12/07 11:03:57;;;;;;;11.05;4.90;;;4.60;5.60;;;;;;7356270;19;20019;-74
2022/12/07 11:06:34;;;;;;;7.63;5.27;;;4.60;5.10;;;;;;7364084;19;20067;-72
2022/12/07 11:09:24;;;;;;;6.90;4.63;;;4.30;6.10;;;;;;7359527;19;20019;-75
2022/12/07 11:12:26;;;;;;;9.00;5.07;;;4.40;7.30;;;;;;7363393;19;20037;-74
2022/12/07 11:15:03;;;;;;;8.88;4.97;;;4.40;6.80;;;;;;7360201;19;20006;-73
2022/12/07 11:17:39;;;;;;;8.35;5.47;;;4.50;7.40;;;;;;7362729;19;20082;-74
2022/12/07 11:20:23;;;;;;;8.23;5.25;;;4.50;5.90;;;;;;7358330;19;20011;-73
2022/12/07 11:23:01;;;;;;;8.80;5.45;;;4.50;7.30;;;;;;7381587;19;20486;-75
2022/12/07 11:25:37;;;;;;;9.20;5.65;;;4.60;7.60;;;;;;7362103;19;20020;-73
2022/12/07 11:28:24;;;;;;;7.82;4.95;;;4.50;6.50;;;;;;7362849;19;20007;-74
2022/12/07 11:31:01;;;;;;;12.65;7.18;;;4.50;7.70;;;;;;7362473;19;20142;-76
2022/12/07 11:33:40;;;;;;;10.02;6.50;;;4.40;7.50;;;;;;7357130;19;20022;-75
2022/12/07 11:36:25;;;;;;;12.60;6.82;;;4.40;6.50;;;;;;7365142;19;20082;-75
2022/12/07 11:38:59;;;;;;;10.18;7.03;;;4.40;6.30;;;;;;7359065;19;20103;-75
2022/12/07 11:41:33;;;;;;;10.68;6.47;;;4.50;6.60;;;;;;7364818;19;20085;-75
2022/12/07 11:44:10;;;;;;;12.15;7.47;;;4.70;6.50;;;;;;7379296;19;20765;-75
2022/12/07 11:46:50;;;;;;;13.30;6.70;;;4.40;6.90;;;;;;7364280;19;20034;-74
2022/12/07 11:49:26;;;;;;;12.55;6.53;;;4.30;7.30;;;;;;7357975;19;20006;-75
2022/12/07 11:51:59;;;;;;;10.05;6.65;;;4.50;7.20;;;;;;7364601;19;20387;-75
2022/12/07 11:54:32;;;;;;;10.48;6.78;;;4.60;6.20;;;;;;7355832;19;20087;-75
2022/12/07 11:57:06;;;;;;;11.60;6.38;;;4.80;5.70;;;;;;7363134;19;20010;-75
2022/12/07 11:59:45;;;;;;;9.20;6.22;;;4.70;4.10;;;;;;7356370;19;20427;-75
2022/12/07 12:02:18;;;;;;;12.48;7.38;;;4.70;5.10;;;;;;7363366;19;20011;-74
2022/12/07 12:04:56;;;;;;;12.82;7.40;;;4.70;4.00;;;;;;7380072;19;20014;-75
2022/12/07 12:07:29;;;;;;;11.35;7.22;;;4.80;3.70;;;;;;7363802;19;20022;-74
2022/12/07 12:10:25;;;;;;;12.15;7.38;;;4.50;3.50;;;;;;7356670;19;20011;-74
2022/12/07 12:13:24;;;;;;;10.00;6.75;;;4.70;3.80;;;;;;7357134;19;20481;-75
2022/12/07 12:16:37;;;;;;;11.55;7.07;;;4.70;3.00;;;;;;7369006;19;20010;-77
2022/12/07 12:19:28;;;;;;;12.27;7.22;;;4.80;3.40;;;;;;7364161;19;20017;-75
2022/12/07 12:22:05;;;;;;;13.13;7.32;;;4.70;3.50;;;;;;7368971;19;20041;-74
2022/12/07 12:24:39;;;;;;;12.55;7.43;;;4.70;2.90;;;;;;7360776;19;20011;-75
2022/12/07 12:27:12;;;;;;;9.90;5.95;;;4.70;3.40;;;;;;7368965;19;20014;-76
2022/12/07 12:29:44;;;;;;;11.43;6.60;;;4.50;3.30;;;;;;7363022;19;20010;-75
2022/12/07 12:32:23;;;;;;;11.98;7.70;;;4.70;5.00;;;;;;7370745;19;20002;-75
2022/12/07 12:35:26;;;;;;;11.60;7.38;;;4.50;5.00;;;;;;7388685;19;20015;-75
2022/12/07 12:37:57;;;;;;;13.30;7.35;;;4.50;5.80;;;;;;7368264;19;20102;-73
2022/12/07 12:40:45;;;;;;;12.65;7.28;;;4.70;5.10;;;;;;7365230;19;20010;-71
2022/12/07 12:43:46;;;;;;;13.60;7.30;;;4.60;4.20;;;;;;7362521;19;20010;-70
2022/12/07 12:46:52;;;;;;;14.23;8.07;;;4.70;4.30;;;;;;7368287;19;20010;-70
2022/12/07 12:49:38;;;;;;;13.45;7.65;;;4.60;4.30;;;;;;7363453;19;20031;-71
2022/12/07 12:52:59;;;;;;;9.68;6.30;;;4.70;5.10;;;;;;7365552;19;20021;-71
2022/12/07 12:56:08;;;;;;;14.45;8.40;;;4.90;3.50;;;;;;7363028;19;20010;-70
2022/12/07 12:58:45;;;;;;;12.13;7.53;;;4.60;5.00;;;;;;7362517;19;20006;-71
2022/12/07 13:01:42;;;;;;;12.68;7.95;;;4.70;4.30;;;;;;7366160;19;20474;-70
2022/12/07 13:04:51;;;;;;;13.70;7.82;;;4.60;5.10;;;;;;7358342;19;20354;-71
2022/12/07 13:07:51;;;;;;;14.05;8.52;;;4.60;5.10;;;;;;7363770;19;21261;-70
2022/12/07 13:10:45;;;;;;;12.95;8.23;;;4.60;5.40;;;;;;7362834;19;20361;-70
2022/12/07 13:13:37;;;;;;;14.20;8.23;;;4.80;5.70;;;;;;7358283;19;20549;-70
2022/12/07 13:16:39;;;;;;;16.63;8.38;;;4.80;5.20;;;;;;7364402;19;20077;-71
2022/12/07 13:19:39;;;;;;;13.32;8.23;;;4.80;4.80;;;;;;7359488;19;20013;-70
2022/12/07 13:22:54;;;;;;;17.27;10.48;;;4.70;5.10;;;;;;7366910;19;20383;-72
2022/12/07 13:25:40;;;;;;;15.77;8.70;;;4.90;4.40;;;;;;7361182;19;20082;-71
2022/12/07 13:28:19;;;;;;;17.75;10.23;;;4.80;5.20;;;;;;7366622;19;20077;-71
2022/12/07 13:31:04;;;;;;;15.80;8.65;;;4.80;5.20;;;;;;7365176;19;20469;-70
2022/12/07 13:33:38;;;;;;;15.60;8.82;;;4.70;5.10;;;;;;7362450;19;20042;-69